createdAt,value
2022-08-19T00:00:48.716Z,26.66
2022-08-19T00:01:49.672Z,26.67
2022-08-19T00:02:50.359Z,26.66
2022-08-19T00:03:49.547Z,26.67
2022-08-19T00:04:50.192Z,26.66
2022-08-19T00:05:50.108Z,26.67
2022-08-19T00:06:50.367Z,26.66
2022-08-19T00:07:50.599Z,26.66
2022-08-19T00:08:50.848Z,26.66
2022-08-19T00:09:51.098Z,26.66
2022-08-19T00:10:51.378Z,26.66
2022-08-19T00:11:51.610Z,26.65
2022-08-19T00:12:51.975Z,26.66
2022-08-19T00:13:52.120Z,26.66
2022-08-19T00:14:52.371Z,26.65
2022-08-19T00:15:52.611Z,26.66
2022-08-19T00:16:52.862Z,26.65
2022-08-19T00:17:53.108Z,26.66
2022-08-19T00:18:53.357Z,26.66
2022-08-19T00:19:53.600Z,26.65
2022-08-19T00:20:53.852Z,26.65
2022-08-19T00:21:54.092Z,26.65
2022-08-19T00:22:54.459Z,26.65
2022-08-19T00:23:54.592Z,26.65
2022-08-19T00:24:55.111Z,26.65
2022-08-19T00:25:55.135Z,26.65
2022-08-19T00:26:55.395Z,26.66
2022-08-19T00:27:55.633Z,26.65
2022-08-19T00:28:55.876Z,26.63
2022-08-19T00:29:57.009Z,26.65
2022-08-19T00:30:56.437Z,26.63
2022-08-19T00:31:56.678Z,26.65
2022-08-19T00:32:56.947Z,26.63
2022-08-19T00:33:57.188Z,26.63
2022-08-19T00:34:58.228Z,26.63
2022-08-19T00:35:57.778Z,26.63
2022-08-19T00:36:58.020Z,26.63
2022-08-19T00:37:58.259Z,26.63
2022-08-19T00:38:58.499Z,26.63
2022-08-19T00:39:58.797Z,26.63
2022-08-19T00:40:59.049Z,26.62
2022-08-19T00:41:59.293Z,26.63
2022-08-19T00:42:59.531Z,26.63
2022-08-19T00:43:59.771Z,26.63
2022-08-19T00:45:00.031Z,26.63
2022-08-19T00:46:00.304Z,26.62
2022-08-19T00:47:01.088Z,26.62
2022-08-19T00:48:00.742Z,26.63
2022-08-19T00:49:00.990Z,26.63
2022-08-19T00:50:02.041Z,26.63
2022-08-19T00:51:01.464Z,26.63
2022-08-19T00:52:01.704Z,26.62
2022-08-19T00:53:01.954Z,26.62
2022-08-19T00:54:02.205Z,26.62
2022-08-19T00:55:03.214Z,26.62
2022-08-19T00:56:02.766Z,26.60
2022-08-19T00:57:02.996Z,26.60
2022-08-19T00:58:03.238Z,26.62
2022-08-19T00:59:04.467Z,26.63
2022-08-19T01:00:04.587Z,26.62
2022-08-19T01:01:04.017Z,26.62
2022-08-19T01:02:04.257Z,26.60
2022-08-19T01:03:04.506Z,26.60
2022-08-19T01:04:04.748Z,26.62
2022-08-19T01:05:05.812Z,26.60
2022-08-19T01:06:05.299Z,26.62
2022-08-19T01:07:05.551Z,26.58
2022-08-19T01:08:05.789Z,26.60
2022-08-19T01:09:06.046Z,26.60
2022-08-19T01:10:06.291Z,26.60
2022-08-19T01:11:06.540Z,26.60
2022-08-19T01:12:06.781Z,26.58
2022-08-19T01:13:07.029Z,26.58
2022-08-19T01:14:07.266Z,26.58
2022-08-19T01:15:07.512Z,26.60
2022-08-19T01:16:07.753Z,26.60
2022-08-19T01:17:08.002Z,26.58
2022-08-19T01:18:08.243Z,26.58
2022-08-19T01:19:08.491Z,26.60
2022-08-19T01:20:09.144Z,26.58
2022-08-19T01:21:09.054Z,26.58
2022-08-19T01:22:14.328Z,26.58
2022-08-19T01:23:10.537Z,26.58
2022-08-19T01:24:09.836Z,26.57
2022-08-19T01:25:14.956Z,26.60
2022-08-19T01:26:10.396Z,26.58
2022-08-19T01:27:10.837Z,26.58
2022-08-19T01:28:11.318Z,26.58
2022-08-19T01:29:11.207Z,26.58
2022-08-19T01:30:12.150Z,26.58
2022-08-19T01:31:11.687Z,26.58
2022-08-19T01:32:32.441Z,26.57
2022-08-19T01:33:13.191Z,26.57
2022-08-19T01:34:12.489Z,26.58
2022-08-19T01:35:13.229Z,26.58
2022-08-19T01:36:13.020Z,26.57
2022-08-19T01:37:13.268Z,26.58
2022-08-19T01:38:14.490Z,26.57
2022-08-19T01:39:13.730Z,26.57
2022-08-19T01:40:14.103Z,26.57
2022-08-19T01:41:14.232Z,26.55
2022-08-19T01:42:14.472Z,26.57
2022-08-19T01:43:14.714Z,26.57
2022-08-19T01:44:19.104Z,26.57
2022-08-19T01:45:15.203Z,26.57
2022-08-19T01:46:15.443Z,26.55
2022-08-19T01:47:15.694Z,26.57
2022-08-19T01:48:15.934Z,26.57
2022-08-19T01:49:16.186Z,26.55
2022-08-19T01:50:17.142Z,26.55
2022-08-19T01:51:16.685Z,26.55
2022-08-19T01:52:17.005Z,26.55
2022-08-19T01:53:17.217Z,26.57
2022-08-19T01:54:23.418Z,26.55
2022-08-19T01:55:18.686Z,26.57
2022-08-19T01:56:17.987Z,26.55
2022-08-19T01:57:18.229Z,26.55
2022-08-19T01:58:18.470Z,26.55
2022-08-19T01:59:18.717Z,26.57
2022-08-19T02:00:19.210Z,26.55
2022-08-19T02:01:19.291Z,26.55
2022-08-19T02:02:19.549Z,26.54
2022-08-19T02:03:19.789Z,26.55
2022-08-19T02:04:20.031Z,26.54
2022-08-19T02:05:21.010Z,26.55
2022-08-19T02:06:20.561Z,26.57
2022-08-19T02:07:21.810Z,26.54
2022-08-19T02:08:21.110Z,26.54
2022-08-19T02:09:21.361Z,26.55
2022-08-19T02:10:21.601Z,26.55
2022-08-19T02:11:21.879Z,26.54
2022-08-19T02:12:22.120Z,26.52
2022-08-19T02:13:26.373Z,26.54
2022-08-19T02:14:22.704Z,26.55
2022-08-19T02:15:22.943Z,26.54
2022-08-19T02:16:23.200Z,26.54
2022-08-19T02:17:23.433Z,26.54
2022-08-19T02:18:28.117Z,26.54
2022-08-19T02:19:23.925Z,26.54
2022-08-19T02:20:24.178Z,26.52
2022-08-19T02:21:24.415Z,26.52
2022-08-19T02:22:24.657Z,26.52
2022-08-19T02:23:24.916Z,26.54
2022-08-19T02:24:25.146Z,26.52
2022-08-19T02:25:25.407Z,26.54
2022-08-19T02:26:25.648Z,26.54
2022-08-19T02:27:25.897Z,26.52
2022-08-19T02:28:26.135Z,26.52
2022-08-19T02:29:26.377Z,26.54
2022-08-19T02:30:27.199Z,26.55
2022-08-19T02:31:26.873Z,26.52
2022-08-19T02:32:27.110Z,26.54
2022-08-19T02:33:27.359Z,26.54
2022-08-19T02:34:27.602Z,26.52
2022-08-19T02:35:28.260Z,26.52
2022-08-19T02:36:28.171Z,26.54
2022-08-19T02:37:28.410Z,26.54
2022-08-19T02:38:28.694Z,26.52
2022-08-19T02:39:28.932Z,26.54
2022-08-19T02:40:29.164Z,26.52
2022-08-19T02:41:29.410Z,26.54
2022-08-19T02:42:29.653Z,26.54
2022-08-19T02:43:29.893Z,26.54
2022-08-19T02:44:31.977Z,26.52
2022-08-19T02:45:30.473Z,26.52
2022-08-19T02:46:30.717Z,26.52
2022-08-19T02:47:30.954Z,26.51
2022-08-19T02:48:31.267Z,26.52
2022-08-19T02:49:34.795Z,26.52
2022-08-19T02:50:31.787Z,26.52
2022-08-19T02:51:32.034Z,26.52
2022-08-19T02:52:32.276Z,26.51
2022-08-19T02:53:32.514Z,26.51
2022-08-19T02:54:32.756Z,26.51
2022-08-19T02:55:33.864Z,26.52
2022-08-19T02:56:34.255Z,26.51
2022-08-19T02:57:33.559Z,26.52
2022-08-19T02:58:33.798Z,26.52
2022-08-19T02:59:34.049Z,26.52
2022-08-19T03:00:35.121Z,26.51
2022-08-19T03:01:35.735Z,26.52
2022-08-19T03:02:34.928Z,26.51
2022-08-19T03:03:35.257Z,26.51
2022-08-19T03:04:35.451Z,26.52
2022-08-19T03:05:55.947Z,26.52
2022-08-19T03:06:36.959Z,26.51
2022-08-19T03:07:36.272Z,26.51
2022-08-19T03:08:36.511Z,26.51
2022-08-19T03:09:36.761Z,26.52
2022-08-19T03:10:37.004Z,26.51
2022-08-19T03:11:37.263Z,26.51
2022-08-19T03:12:37.513Z,26.51
2022-08-19T03:13:37.767Z,26.51
2022-08-19T03:14:38.004Z,26.51
2022-08-19T03:15:38.265Z,26.50
2022-08-19T03:16:38.505Z,26.50
2022-08-19T03:17:38.755Z,26.51
2022-08-19T03:18:38.996Z,26.52
2022-08-19T03:19:39.230Z,26.50
2022-08-19T03:20:39.477Z,26.51
2022-08-19T03:21:39.717Z,26.50
2022-08-19T03:22:39.958Z,26.51
2022-08-19T03:23:40.207Z,26.51
2022-08-19T03:24:40.468Z,26.51
2022-08-19T03:25:40.759Z,26.51
2022-08-19T03:26:40.997Z,26.50
2022-08-19T03:27:41.238Z,26.52
2022-08-19T03:28:41.479Z,26.50
2022-08-19T03:29:43.090Z,26.50
2022-08-19T03:30:43.092Z,26.51
2022-08-19T03:31:51.984Z,26.50
2022-08-19T03:32:45.517Z,26.51
2022-08-19T03:33:42.771Z,26.50
2022-08-19T03:34:43.011Z,26.50
2022-08-19T03:35:43.260Z,26.50
2022-08-19T03:36:43.499Z,26.51
2022-08-19T03:37:43.743Z,26.50
2022-08-19T03:38:43.983Z,26.50
2022-08-19T03:39:44.260Z,26.51
2022-08-19T03:40:44.530Z,26.50
2022-08-19T03:41:46.247Z,26.51
2022-08-19T03:42:49.095Z,26.50
2022-08-19T03:43:46.354Z,26.50
2022-08-19T03:44:45.701Z,26.50
2022-08-19T03:45:45.944Z,26.50
2022-08-19T03:46:46.184Z,26.51
2022-08-19T03:47:46.425Z,26.50
2022-08-19T03:48:46.667Z,26.51
2022-08-19T03:49:46.906Z,26.50
2022-08-19T03:50:47.156Z,26.50
2022-08-19T03:51:47.397Z,26.50
2022-08-19T03:52:47.698Z,26.50
2022-08-19T03:53:47.937Z,26.48
2022-08-19T03:54:48.178Z,26.50
2022-08-19T03:55:48.428Z,26.50
2022-08-19T03:56:48.669Z,26.48
2022-08-19T03:57:48.918Z,26.51
2022-08-19T03:58:49.156Z,26.48
2022-08-19T03:59:49.399Z,26.50
2022-08-19T04:00:49.695Z,26.50
2022-08-19T04:01:49.940Z,26.50
2022-08-19T04:02:58.462Z,26.50
2022-08-19T04:03:51.411Z,26.50
2022-08-19T04:04:50.711Z,26.48
2022-08-19T04:05:50.962Z,26.50
2022-08-19T04:06:51.202Z,26.48
2022-08-19T04:07:51.451Z,26.50
2022-08-19T04:08:51.694Z,26.50
2022-08-19T04:09:51.933Z,26.48
2022-08-19T04:10:52.189Z,26.50
2022-08-19T04:11:52.422Z,26.50
2022-08-19T04:12:52.819Z,26.48
2022-08-19T04:13:52.935Z,26.48
2022-08-19T04:14:53.186Z,26.48
2022-08-19T04:15:53.425Z,26.48
2022-08-19T04:16:53.673Z,26.48
2022-08-19T04:17:53.906Z,26.48
2022-08-19T04:18:54.156Z,26.47
2022-08-19T04:19:54.409Z,26.48
2022-08-19T04:20:54.657Z,26.48
2022-08-19T04:21:54.907Z,26.48
2022-08-19T04:22:55.260Z,26.48
2022-08-19T04:23:55.860Z,26.48
2022-08-19T04:24:55.740Z,26.48
2022-08-19T04:25:55.979Z,26.48
2022-08-19T04:26:56.229Z,26.48
2022-08-19T04:27:56.469Z,26.48
2022-08-19T04:28:56.719Z,26.48
2022-08-19T04:29:56.960Z,26.47
2022-08-19T04:30:57.210Z,26.47
2022-08-19T04:31:57.452Z,26.47
2022-08-19T04:32:57.699Z,26.48
2022-08-19T04:33:57.942Z,26.48
2022-08-19T04:35:02.459Z,26.47
2022-08-19T04:35:59.424Z,26.48
2022-08-19T04:36:58.729Z,26.48
2022-08-19T04:37:58.970Z,26.48
2022-08-19T04:38:59.214Z,26.47
2022-08-19T04:40:02.497Z,26.48
2022-08-19T04:40:59.694Z,26.45
2022-08-19T04:41:59.934Z,26.47
2022-08-19T04:43:00.214Z,26.48
2022-08-19T04:44:04.261Z,26.45
2022-08-19T04:45:00.734Z,26.47
2022-08-19T04:46:01.316Z,26.45
2022-08-19T04:47:01.470Z,26.47
2022-08-19T04:48:25.682Z,26.45
2022-08-19T04:49:10.450Z,26.45
2022-08-19T04:50:03.090Z,26.45
2022-08-19T04:51:02.398Z,26.45
2022-08-19T04:52:02.638Z,26.45
2022-08-19T04:53:02.878Z,26.47
2022-08-19T04:54:03.135Z,26.45
2022-08-19T04:55:03.376Z,26.44
2022-08-19T04:56:03.619Z,26.44
2022-08-19T04:57:03.859Z,26.45
2022-08-19T04:58:04.181Z,26.45
2022-08-19T04:59:04.424Z,26.45
2022-08-19T05:00:04.661Z,26.44
2022-08-19T05:01:04.936Z,26.44
2022-08-19T05:02:05.191Z,26.44
2022-08-19T05:03:05.432Z,26.44
2022-08-19T05:04:05.725Z,26.44
2022-08-19T05:05:05.977Z,26.44
2022-08-19T05:06:06.220Z,26.44
2022-08-19T05:07:06.465Z,26.43
2022-08-19T05:08:06.704Z,26.44
2022-08-19T05:09:06.945Z,26.44
2022-08-19T05:10:07.185Z,26.43
2022-08-19T05:11:07.442Z,26.43
2022-08-19T05:12:07.765Z,26.44
2022-08-19T05:13:08.026Z,26.43
2022-08-19T05:14:08.275Z,26.43
2022-08-19T05:15:08.556Z,26.44
2022-08-19T05:16:08.815Z,26.43
2022-08-19T05:17:26.601Z,26.44
2022-08-19T05:18:10.307Z,26.44
2022-08-19T05:19:09.627Z,26.44
2022-08-19T05:20:09.878Z,26.44
2022-08-19T05:21:10.150Z,26.44
2022-08-19T05:22:10.410Z,26.44
2022-08-19T05:23:20.527Z,26.43
2022-08-19T05:24:11.899Z,26.44
2022-08-19T05:25:13.490Z,26.43
2022-08-19T05:26:11.523Z,26.44
2022-08-19T05:27:11.761Z,26.43
2022-08-19T05:28:12.001Z,26.43
2022-08-19T05:29:12.254Z,26.43
2022-08-19T05:30:12.544Z,26.40
2022-08-19T05:31:12.837Z,26.40
2022-08-19T05:32:13.072Z,26.43
2022-08-19T05:33:13.322Z,26.40
2022-08-19T05:34:20.175Z,26.40
2022-08-19T05:35:14.793Z,26.43
2022-08-19T05:36:14.104Z,26.40
2022-08-19T05:37:14.354Z,26.39
2022-08-19T05:38:14.594Z,26.39
2022-08-19T05:39:14.843Z,26.40
2022-08-19T05:40:15.205Z,26.39
2022-08-19T05:41:15.408Z,26.39
2022-08-19T05:42:15.651Z,26.37
2022-08-19T05:43:15.894Z,26.37
2022-08-19T05:44:16.136Z,26.37
2022-08-19T05:45:16.385Z,26.37
2022-08-19T05:46:16.631Z,26.37
2022-08-19T05:47:16.875Z,26.37
2022-08-19T05:48:17.119Z,26.36
2022-08-19T05:49:17.368Z,26.36
2022-08-19T05:50:17.608Z,26.33
2022-08-19T05:51:17.879Z,26.36
2022-08-19T05:52:18.878Z,26.35
2022-08-19T05:53:18.450Z,26.35
2022-08-19T05:54:18.710Z,26.33
2022-08-19T05:55:18.971Z,26.35
2022-08-19T05:56:19.239Z,26.32
2022-08-19T05:57:19.529Z,26.33
2022-08-19T05:58:19.782Z,26.32
2022-08-19T05:59:20.082Z,26.33
2022-08-19T06:00:24.127Z,26.33
2022-08-19T06:01:20.583Z,26.32
2022-08-19T06:02:20.871Z,26.32
2022-08-19T06:03:21.183Z,26.32
2022-08-19T06:04:21.451Z,26.32
2022-08-19T06:05:21.705Z,26.30
2022-08-19T06:06:21.984Z,26.30
2022-08-19T06:07:22.306Z,26.29
2022-08-19T06:08:34.252Z,26.32
2022-08-19T06:09:23.802Z,26.30
2022-08-19T06:10:23.126Z,26.30
2022-08-19T06:11:23.396Z,26.30
2022-08-19T06:12:23.647Z,26.29
2022-08-19T06:13:23.908Z,26.30
2022-08-19T06:14:25.834Z,26.30
2022-08-19T06:15:24.448Z,26.30
2022-08-19T06:16:24.709Z,26.30
2022-08-19T06:17:24.959Z,26.32
2022-08-19T06:18:25.227Z,26.30
2022-08-19T06:19:25.499Z,26.30
2022-08-19T06:20:45.917Z,26.29
2022-08-19T06:21:27.001Z,26.29
2022-08-19T06:22:26.322Z,26.30
2022-08-19T06:23:26.570Z,26.29
2022-08-19T06:24:26.829Z,26.29
2022-08-19T06:25:30.432Z,26.29
2022-08-19T06:26:27.322Z,26.29
2022-08-19T06:27:27.582Z,26.29
2022-08-19T06:28:27.878Z,26.29
2022-08-19T06:29:28.133Z,26.29
2022-08-19T06:30:28.384Z,26.29
2022-08-19T06:31:28.647Z,26.28
2022-08-19T06:32:28.894Z,26.28
2022-08-19T06:33:29.144Z,26.28
2022-08-19T06:34:29.484Z,26.29
2022-08-19T06:35:29.769Z,26.28
2022-08-19T06:36:30.026Z,26.28
2022-08-19T06:37:31.253Z,26.29
2022-08-19T06:38:30.587Z,26.28
2022-08-19T06:39:30.873Z,26.29
2022-08-19T06:40:31.149Z,26.29
2022-08-19T06:41:31.408Z,26.28
2022-08-19T06:42:31.660Z,26.28
2022-08-19T06:43:31.918Z,26.28
2022-08-19T06:44:32.168Z,26.28
2022-08-19T06:45:34.541Z,26.26
2022-08-19T06:46:35.209Z,26.28
2022-08-19T06:47:33.039Z,26.28
2022-08-19T06:48:36.596Z,26.28
2022-08-19T06:49:34.558Z,26.26
2022-08-19T06:50:33.872Z,26.28
2022-08-19T06:52:34.390Z,26.28
2022-08-19T06:53:34.661Z,26.26
2022-08-19T06:54:40.593Z,26.26
2022-08-19T06:55:36.327Z,26.26
2022-08-19T06:56:35.452Z,26.28
2022-08-19T06:57:35.720Z,26.26
2022-08-19T06:58:35.973Z,26.26
2022-08-19T06:59:36.238Z,26.28
2022-08-19T07:00:36.484Z,26.28
2022-08-19T07:01:36.763Z,26.28
2022-08-19T07:02:37.014Z,26.26
2022-08-19T07:03:37.400Z,26.26
2022-08-19T07:04:37.637Z,26.26
2022-08-19T07:05:37.906Z,26.26
2022-08-19T07:06:44.268Z,26.28
2022-08-19T07:07:39.446Z,26.26
2022-08-19T07:09:39.065Z,26.26
2022-08-19T07:10:42.778Z,26.26
2022-08-19T07:11:39.607Z,26.25
2022-08-19T07:12:39.879Z,26.25
2022-08-19T07:13:40.138Z,26.26
2022-08-19T07:14:40.400Z,26.25
2022-08-19T07:15:40.659Z,26.25
2022-08-19T07:16:42.983Z,26.25
2022-08-19T07:17:41.977Z,26.25
2022-08-19T07:18:41.460Z,26.23
2022-08-19T07:19:41.761Z,26.23
2022-08-19T07:20:42.230Z,26.25
2022-08-19T07:21:42.331Z,26.25
2022-08-19T07:22:42.588Z,26.25
2022-08-19T07:23:42.854Z,26.25
2022-08-19T07:24:51.194Z,26.23
2022-08-19T07:25:44.580Z,26.25
2022-08-19T07:26:43.693Z,26.25
2022-08-19T07:27:46.370Z,26.25
2022-08-19T07:28:51.416Z,26.23
2022-08-19T07:29:45.505Z,26.25
2022-08-19T07:30:44.822Z,26.23
2022-08-19T07:31:45.055Z,26.25
2022-08-19T07:32:45.315Z,26.25
2022-08-19T07:33:45.576Z,26.23
2022-08-19T07:34:45.906Z,26.23
2022-08-19T07:35:46.168Z,26.23
2022-08-19T07:36:46.438Z,26.23
2022-08-19T07:37:46.766Z,26.23
2022-08-19T07:38:47.016Z,26.21
2022-08-19T07:39:47.313Z,26.23
2022-08-19T07:40:47.548Z,26.25
2022-08-19T07:41:47.811Z,26.25
2022-08-19T07:42:48.098Z,26.23
2022-08-19T07:43:48.359Z,26.25
2022-08-19T07:44:50.367Z,26.25
2022-08-19T07:45:48.888Z,26.23
2022-08-19T07:46:51.496Z,26.23
2022-08-19T07:47:51.352Z,26.25
2022-08-19T07:48:49.751Z,26.25
2022-08-19T07:49:50.010Z,26.25
2022-08-19T07:50:50.264Z,26.25
2022-08-19T07:51:50.531Z,26.25
2022-08-19T07:52:50.951Z,26.23
2022-08-19T07:53:51.120Z,26.25
2022-08-19T07:54:51.373Z,26.25
2022-08-19T07:55:51.633Z,26.25
2022-08-19T07:56:52.487Z,26.25
2022-08-19T07:57:52.136Z,26.25
2022-08-19T07:58:52.418Z,26.26
2022-08-19T07:59:52.675Z,26.25
2022-08-19T08:00:52.935Z,26.25
2022-08-19T08:01:54.066Z,26.23
2022-08-19T08:02:55.818Z,26.23
2022-08-19T08:03:53.806Z,26.23
2022-08-19T08:04:54.064Z,26.25
2022-08-19T08:05:54.317Z,26.25
2022-08-19T08:06:55.398Z,26.23
2022-08-19T08:07:54.838Z,26.23
2022-08-19T08:08:55.098Z,26.25
2022-08-19T08:10:56.859Z,26.25
2022-08-19T08:11:55.939Z,26.23
2022-08-19T08:13:10.181Z,26.25
2022-08-19T08:14:01.247Z,26.25
2022-08-19T08:14:57.710Z,26.26
2022-08-19T08:15:57.031Z,26.25
2022-08-19T08:16:57.320Z,26.25
2022-08-19T08:17:57.523Z,26.25
2022-08-19T08:18:57.801Z,26.25
2022-08-19T08:19:58.059Z,26.25
2022-08-19T08:20:58.322Z,26.25
2022-08-19T08:21:59.154Z,26.26
2022-08-19T08:22:58.841Z,26.26
2022-08-19T08:24:59.432Z,26.26
2022-08-19T08:25:59.692Z,26.28
2022-08-19T08:27:00.824Z,26.28
2022-08-19T08:28:00.263Z,26.28
2022-08-19T08:29:00.515Z,26.28
2022-08-19T08:30:02.826Z,26.28
2022-08-19T08:31:01.014Z,26.26
2022-08-19T08:32:02.095Z,26.28
2022-08-19T08:33:02.580Z,26.28
2022-08-19T08:34:01.837Z,26.28
2022-08-19T08:35:02.097Z,26.29
2022-08-19T08:36:04.020Z,26.29
2022-08-19T08:37:03.398Z,26.29
2022-08-19T08:38:02.840Z,26.29
2022-08-19T08:39:03.104Z,26.29
2022-08-19T08:40:03.386Z,26.32
2022-08-19T08:41:03.649Z,26.30
2022-08-19T08:42:09.956Z,26.32
2022-08-19T08:44:04.442Z,26.35
2022-08-19T08:45:04.741Z,26.35
2022-08-19T08:46:05.051Z,26.36
2022-08-19T08:47:05.395Z,26.37
2022-08-19T08:48:05.640Z,26.39
2022-08-19T08:49:06.882Z,26.43
2022-08-19T08:50:06.258Z,26.44
2022-08-19T08:51:06.517Z,26.45
2022-08-19T08:52:07.144Z,26.45
2022-08-19T08:53:07.117Z,26.47
2022-08-19T08:54:07.384Z,26.48
2022-08-19T08:55:10.420Z,26.50
2022-08-19T08:56:07.854Z,26.52
2022-08-19T08:57:08.958Z,26.52
2022-08-19T08:58:08.405Z,26.54
2022-08-19T08:59:08.670Z,26.54
2022-08-19T09:00:15.061Z,26.55
2022-08-19T09:01:10.224Z,26.55
2022-08-19T09:02:09.457Z,26.57
2022-08-19T09:03:09.717Z,26.58
2022-08-19T09:04:09.974Z,26.60
2022-08-19T09:05:10.305Z,26.58
2022-08-19T09:06:12.028Z,26.60
2022-08-19T09:07:18.682Z,26.62
2022-08-19T09:08:13.799Z,26.60
2022-08-19T09:09:11.842Z,26.63
2022-08-19T09:10:11.579Z,26.65
2022-08-19T09:11:11.850Z,26.63
2022-08-19T09:12:12.119Z,26.65
2022-08-19T09:13:12.384Z,26.65
2022-08-19T09:14:29.195Z,26.66
2022-08-19T09:15:13.872Z,26.66
2022-08-19T09:16:13.183Z,26.67
2022-08-19T09:17:13.506Z,26.67
2022-08-19T09:18:15.314Z,26.69
2022-08-19T09:19:14.994Z,26.69
2022-08-19T09:20:15.295Z,26.70
2022-08-19T09:21:14.611Z,26.72
2022-08-19T09:22:15.144Z,26.72
2022-08-19T09:23:16.146Z,26.72
2022-08-19T09:24:15.457Z,26.72
2022-08-19T09:25:15.847Z,26.73
2022-08-19T09:26:16.453Z,26.73
2022-08-19T09:27:18.572Z,26.73
2022-08-19T09:28:22.469Z,26.75
2022-08-19T09:29:17.936Z,26.75
2022-08-19T09:30:17.318Z,26.75
2022-08-19T09:31:17.563Z,26.77
2022-08-19T09:32:26.448Z,26.76
2022-08-19T09:33:19.187Z,26.80
2022-08-19T09:34:20.983Z,26.77
2022-08-19T09:35:18.815Z,26.80
2022-08-19T09:36:24.298Z,26.81
2022-08-19T09:37:20.309Z,26.80
2022-08-19T09:38:19.589Z,26.81
2022-08-19T09:39:19.849Z,26.81
2022-08-19T09:40:20.206Z,26.82
2022-08-19T09:41:20.459Z,26.81
2022-08-19T09:42:30.344Z,26.82
2022-08-19T09:43:33.051Z,26.82
2022-08-19T09:44:22.240Z,26.85
2022-08-19T09:45:21.581Z,26.84
2022-08-19T09:46:21.852Z,26.85
2022-08-19T09:47:22.120Z,26.85
2022-08-19T09:48:23.573Z,26.85
2022-08-19T09:49:22.704Z,26.87
2022-08-19T09:50:23.004Z,26.85
2022-08-19T09:51:23.291Z,26.87
2022-08-19T09:52:23.573Z,26.85
2022-08-19T09:53:25.573Z,26.88
2022-08-19T09:54:25.133Z,26.88
2022-08-19T09:55:24.363Z,26.87
2022-08-19T09:56:25.595Z,26.88
2022-08-19T09:57:25.158Z,26.88
2022-08-19T09:58:26.780Z,26.88
2022-08-19T09:59:25.565Z,26.89
2022-08-19T10:00:25.816Z,26.88
2022-08-19T10:01:26.160Z,26.89
2022-08-19T10:02:28.995Z,26.88
2022-08-19T10:03:30.197Z,26.88
2022-08-19T10:04:26.975Z,26.88
2022-08-19T10:05:27.248Z,26.88
2022-08-19T10:06:45.567Z,26.88
2022-08-19T10:07:36.218Z,26.88
2022-08-19T10:08:29.041Z,26.88
2022-08-19T10:09:33.836Z,26.88
2022-08-19T10:10:29.589Z,26.89
2022-08-19T10:11:36.472Z,26.89
2022-08-19T10:12:30.160Z,26.88
2022-08-19T10:13:29.480Z,26.88
2022-08-19T10:14:29.743Z,26.88
2022-08-19T10:15:30.004Z,26.89
2022-08-19T10:16:30.440Z,26.88
2022-08-19T10:17:31.683Z,26.89
2022-08-19T10:18:30.891Z,26.89
2022-08-19T10:19:31.202Z,26.88
2022-08-19T10:20:31.461Z,26.89
2022-08-19T10:21:32.220Z,26.89
2022-08-19T10:22:32.151Z,26.89
2022-08-19T10:23:33.594Z,26.89
2022-08-19T10:24:32.515Z,26.91
2022-08-19T10:25:32.774Z,26.91
2022-08-19T10:26:33.035Z,26.91
2022-08-19T10:27:34.206Z,26.91
2022-08-19T10:28:33.543Z,26.91
2022-08-19T10:29:33.806Z,26.91
2022-08-19T10:30:34.066Z,26.91
2022-08-19T10:32:02.298Z,26.91
2022-08-19T10:32:35.567Z,26.92
2022-08-19T10:33:42.634Z,26.92
2022-08-19T10:34:36.128Z,26.92
2022-08-19T10:35:42.772Z,26.91
2022-08-19T10:36:36.690Z,26.91
2022-08-19T10:37:37.147Z,26.92
2022-08-19T10:38:37.319Z,26.92
2022-08-19T10:39:42.435Z,26.92
2022-08-19T10:40:37.898Z,26.92
2022-08-19T10:41:37.220Z,26.92
2022-08-19T10:42:37.493Z,26.92
2022-08-19T10:43:37.753Z,26.94
2022-08-19T10:44:38.010Z,26.94
2022-08-19T10:45:38.270Z,26.94
2022-08-19T10:46:39.502Z,26.94
2022-08-19T10:47:38.842Z,26.94
2022-08-19T10:48:39.103Z,26.94
2022-08-19T10:49:39.360Z,26.94
2022-08-19T10:50:39.644Z,26.92
2022-08-19T10:51:46.591Z,26.92
2022-08-19T10:52:49.739Z,26.94
2022-08-19T10:53:41.424Z,26.92
2022-08-19T10:54:40.743Z,26.92
2022-08-19T10:55:41.008Z,26.94
2022-08-19T10:56:41.265Z,26.94
2022-08-19T10:58:42.867Z,26.92
2022-08-19T10:59:42.187Z,26.94
2022-08-19T11:00:42.446Z,26.92
2022-08-19T11:01:42.714Z,26.92
2022-08-19T11:02:43.857Z,26.94
2022-08-19T11:03:43.300Z,26.94
2022-08-19T11:04:43.558Z,26.92
2022-08-19T11:05:43.818Z,26.92
2022-08-19T11:06:44.087Z,26.94
2022-08-19T11:07:45.139Z,26.94
2022-08-19T11:08:44.580Z,26.94
2022-08-19T11:09:44.850Z,26.94
2022-08-19T11:10:46.801Z,26.92
2022-08-19T11:11:46.350Z,26.94
2022-08-19T11:12:45.681Z,26.94
2022-08-19T11:13:45.941Z,26.92
2022-08-19T11:14:46.203Z,26.92
2022-08-19T11:15:46.462Z,26.91
2022-08-19T11:16:46.731Z,26.91
2022-08-19T11:17:47.003Z,26.92
2022-08-19T11:18:47.263Z,26.92
2022-08-19T11:19:47.522Z,26.91
2022-08-19T11:20:47.784Z,26.91
2022-08-19T11:21:48.044Z,26.91
2022-08-19T11:22:49.144Z,26.91
2022-08-19T11:23:48.590Z,26.92
2022-08-19T11:24:48.847Z,26.92
2022-08-19T11:25:49.106Z,26.92
2022-08-19T11:26:49.375Z,26.92
2022-08-19T11:27:50.598Z,26.94
2022-08-19T11:28:49.915Z,26.92
2022-08-19T11:29:50.166Z,26.94
2022-08-19T11:30:50.427Z,26.92
2022-08-19T11:31:50.685Z,26.95
2022-08-19T11:32:51.759Z,26.94
2022-08-19T11:33:51.198Z,26.95
2022-08-19T11:34:51.456Z,26.97
2022-08-19T11:35:51.708Z,26.97
2022-08-19T11:36:51.969Z,26.97
2022-08-19T11:37:53.219Z,26.97
2022-08-19T11:38:52.568Z,26.97
2022-08-19T11:39:53.903Z,26.99
2022-08-19T11:40:53.130Z,26.99
2022-08-19T11:41:53.391Z,26.99
2022-08-19T11:42:53.661Z,26.99
2022-08-19T11:43:53.920Z,26.99
2022-08-19T11:44:54.173Z,27.00
2022-08-19T11:45:54.431Z,26.99
2022-08-19T11:46:54.683Z,27.00
2022-08-19T11:47:55.033Z,27.00
2022-08-19T11:48:55.193Z,27.02
2022-08-19T11:49:55.452Z,27.00
2022-08-19T11:50:55.704Z,27.02
2022-08-19T11:51:55.964Z,27.02
2022-08-19T11:52:56.234Z,27.02
2022-08-19T11:53:56.493Z,27.03
2022-08-19T11:54:56.760Z,27.04
2022-08-19T11:55:57.005Z,27.03
2022-08-19T11:56:57.276Z,27.03
2022-08-19T11:57:58.143Z,27.03
2022-08-19T11:58:57.827Z,27.04
2022-08-19T11:59:58.087Z,27.03
2022-08-19T12:00:58.344Z,27.04
2022-08-19T12:01:58.598Z,27.04
2022-08-19T12:02:59.667Z,27.04
2022-08-19T12:03:59.161Z,27.04
2022-08-19T12:04:59.449Z,27.04
2022-08-19T12:05:59.710Z,27.06
2022-08-19T12:06:59.971Z,27.06
2022-08-19T12:08:01.050Z,27.04
2022-08-19T12:09:00.498Z,27.06
2022-08-19T12:10:00.750Z,27.04
2022-08-19T12:11:01.050Z,27.06
2022-08-19T12:12:01.311Z,27.06
2022-08-19T12:13:01.580Z,27.06
2022-08-19T12:14:01.832Z,27.06
2022-08-19T12:15:02.093Z,27.07
2022-08-19T12:16:02.352Z,27.06
2022-08-19T12:17:02.604Z,27.07
2022-08-19T12:18:02.873Z,27.07
2022-08-19T12:19:03.154Z,27.09
2022-08-19T12:20:03.423Z,27.09
2022-08-19T12:21:03.694Z,27.07
2022-08-19T12:22:03.954Z,27.07
2022-08-19T12:23:05.035Z,27.09
2022-08-19T12:24:04.475Z,27.09
2022-08-19T12:25:04.727Z,27.07
2022-08-19T12:26:04.986Z,27.09
2022-08-19T12:27:05.244Z,27.09
2022-08-19T12:28:06.433Z,27.09
2022-08-19T12:29:05.877Z,27.09
2022-08-19T12:30:06.127Z,27.09
2022-08-19T12:31:06.388Z,27.07
2022-08-19T12:32:06.647Z,27.09
2022-08-19T12:33:07.746Z,27.10
2022-08-19T12:34:07.179Z,27.09
2022-08-19T12:35:07.491Z,27.09
2022-08-19T12:36:07.747Z,27.09
2022-08-19T12:37:08.000Z,27.10
2022-08-19T12:38:09.080Z,27.07
2022-08-19T12:39:08.520Z,27.09
2022-08-19T12:40:08.865Z,27.09
2022-08-19T12:41:09.081Z,27.09
2022-08-19T12:42:09.343Z,27.09
2022-08-19T12:43:09.611Z,27.09
2022-08-19T12:44:09.872Z,27.07
2022-08-19T12:45:10.143Z,27.09
2022-08-19T12:46:10.882Z,27.09
2022-08-19T12:47:10.728Z,27.09
2022-08-19T12:48:33.304Z,27.09
2022-08-19T12:49:32.872Z,27.09
2022-08-19T12:50:12.581Z,27.09
2022-08-19T12:51:11.892Z,27.09
2022-08-19T12:52:13.115Z,27.10
2022-08-19T12:53:13.145Z,27.10
2022-08-19T12:54:12.705Z,27.10
2022-08-19T12:55:12.967Z,27.10
2022-08-19T12:56:13.226Z,27.09
2022-08-19T12:57:13.477Z,27.10
2022-08-19T12:58:14.567Z,27.09
2022-08-19T12:59:13.997Z,27.10
2022-08-19T13:00:14.270Z,27.10
2022-08-19T13:01:14.571Z,27.09
2022-08-19T13:02:14.828Z,27.09